Rutland, ND (58067)

2:46 AM CDT on August 02, 2014 (GMT -0500)
Gwinner-melroe (KGWR) Elev 1266 ft | 46.22 °N, 97.64 °W | Change Station

Current weather conditions updated 11 minutes ago

Clear
Clear
64 °F
Feels Like 64 °F
N
0
Wind Variable Wind from North
Gusts 6 mph

Today is forecast to be Warmer than yesterday. Partly cloudy, chance of a thunderstorm.

Today
High -- | Low -- °F
--% Chance of Precip.
Yesterday
High -- | Low -- °F
Precip. -- in
6:13 AM 8:58 PM
Waxing Crescent, 33% visible
Pressure 30.10 in
Visibility -9999.0 miles
Clouds
Dew Point 63 °F
Humidity 94%
Rainfall 0.00 in
Snow Depth Not available.
UV Not available.
Pollen 7.80 out of 12
Air Quality Not available.
Flu Activity Not available.
METAR KGWR 020735Z AUTO 00000KT 18/17 A3010 RMK A01 P000

More Conditions Fewer Conditions

Pressure 30.10 in
Visibility -9999.0 miles
Clouds
Dew Point 63 °F
Humidity 94%
Rainfall 0.00 in
Snow Depth Not available.
UV Not available.
Pollen 7.80 out of 12
Air Quality Not available.
Flu Activity Not available.
METAR KGWR 020735Z AUTO 00000KT 18/17 A3010 RMK A01 P000

More Conditions Fewer Conditions

10-Day Weather Forecast

Almanac

Astronomy

Aug. 02, 2014 Rise Set
Actual Time 6:13 AM CDT 8:58 PM CDT
Civil Twilight 5:39 AM CDT 9:32 PM CDT
Nautical Twilight 4:55 AM CDT 10:16 PM CDT
Astronomical Twilight 4:04 AM CDT 11:06 PM CDT
Moon 1:00 PM CDT 11:52 PM CDT
Length of Visible Light 15h 53m
Length of Day
14h 44m
Tomorrow will be 2m 34s shorter.
Waxing Crescent, 33% of the Moon is Illuminated
Today
Waxing Crescent
Aug 3
First Quarter
Aug 10
Full
Aug 17
Last Quarter
Aug 25
New

Today's Extremes

State Highs State Lows

Community

WunderPhotos

Upload Photos

1,739,843 photos uploaded!

Nearby

Snow Depth

Station Depth Elevation
No new snow has been reported.

Earthquake Activity

City Distance Mag. Time & Date
No recent earthquake activity has been reported nearby.
Minimum magnitude displayed is 2.5.

Coastal Water Temperatures

Place Temperature
No Stations Reporting

Nearby Weather Stations

Station Location Temp. Dew Point Humidity Wind Precip. Elev Updated Type
RAWS MARSHALL CO SD, Lake City, SD 68 °F 68 °F 100% North  at  0 mph 0.00 in / hr 2009 ft 1:59 AM CDT MADIS
Open Plains ND, Wyndmere, ND 57.6 °F 57 °F 97% NNE  at  0.0 mph - / hr 1056 ft 2:42 AM CDT Normal

Show More Stations Show Fewer Stations